East Swanzey, New Hampshire
Current Conditions -  °F | °C
As of 11:35 AM on Friday 21 Nov 2014 (Local Time) from KEEN Reporting Station
Few Clouds Few Clouds  
Wind Chill: 16°   Ceiling: Unl
Heat Index: 28°   Visibility: 10mi
Dew Point: 10°   Wind: 17mph
Humidity: 47%   Direction: 300°WNW
Pressure: 30.13"   Gusts: 23mph
Location:  42.8618°N, 72.2452°W
Report Text: KEEN 211635Z AUTO 30015G20KT 10SM FEW042 FEW050 M02/M12 A3013 RMK AO1
Loading
Personal Weather Stations






























Interactive Weather Map New forecast layout! Learn more

10-Day Weather Forecast

Advertisements
Track Severe Weather on mobile